sensor_id;sensor_type;location;lat;lon;timestamp;pressure;altitude;pressure_sealevel;temperature;humidity
41886;BME280;27567;43.084;25.616;2023-04-07T00:02:28;98013.47;;;4.02;100.00
41886;BME280;27567;43.084;25.616;2023-04-07T00:05:13;98011.47;;;3.88;100.00
41886;BME280;27567;43.084;25.616;2023-04-07T00:07:58;98009.81;;;3.95;100.00
41886;BME280;27567;43.084;25.616;2023-04-07T00:10:42;98009.66;;;3.88;100.00
41886;BME280;27567;43.084;25.616;2023-04-07T00:13:26;98019.09;;;3.74;100.00
41886;BME280;27567;43.084;25.616;2023-04-07T00:16:10;98017.63;;;3.64;100.00
41886;BME280;27567;43.084;25.616;2023-04-07T00:18:54;98010.00;;;3.60;100.00
41886;BME280;27567;43.084;25.616;2023-04-07T00:21:38;98005.84;;;3.74;100.00
41886;BME280;27567;43.084;25.616;2023-04-07T00:24:22;98010.47;;;3.64;100.00
41886;BME280;27567;43.084;25.616;2023-04-07T00:27:06;98008.00;;;3.71;100.00
41886;BME280;27567;43.084;25.616;2023-04-07T00:29:50;98008.34;;;3.68;100.00
41886;BME280;27567;43.084;25.616;2023-04-07T00:32:34;98007.50;;;3.67;100.00
41886;BME280;27567;43.084;25.616;2023-04-07T00:35:18;97998.91;;;3.57;100.00
41886;BME280;27567;43.084;25.616;2023-04-07T00:38:03;97995.41;;;3.56;100.00
41886;BME280;27567;43.084;25.616;2023-04-07T00:40:46;97994.94;;;3.61;100.00
41886;BME280;27567;43.084;25.616;2023-04-07T00:43:30;97992.41;;;3.51;100.00
41886;BME280;27567;43.084;25.616;2023-04-07T00:46:14;98000.38;;;3.43;100.00
41886;BME280;27567;43.084;25.616;2023-04-07T00:48:59;97992.09;;;3.46;100.00
41886;BME280;27567;43.084;25.616;2023-04-07T00:51:43;97997.03;;;3.49;100.00
41886;BME280;27567;43.084;25.616;2023-04-07T00:54:29;98000.69;;;3.56;100.00
41886;BME280;27567;43.084;25.616;2023-04-07T00:57:13;97995.91;;;3.52;100.00
41886;BME280;27567;43.084;25.616;2023-04-07T00:59:57;97997.88;;;3.66;100.00
41886;BME280;27567;43.084;25.616;2023-04-07T01:02:54;97989.63;;;3.53;100.00
41886;BME280;27567;43.084;25.616;2023-04-07T01:05:54;97993.91;;;3.54;100.00
41886;BME280;27567;43.084;25.616;2023-04-07T01:08:50;97993.56;;;3.65;100.00
41886;BME280;27567;43.084;25.616;2023-04-07T01:14:59;97989.25;;;3.64;100.00
41886;BME280;27567;43.084;25.616;2023-04-07T01:17:52;97980.50;;;3.55;100.00
41886;BME280;27567;43.084;25.616;2023-04-07T01:20:38;97988.13;;;3.58;100.00
41886;BME280;27567;43.084;25.616;2023-04-07T01:23:35;97991.91;;;3.39;100.00
41886;BME280;27567;43.084;25.616;2023-04-07T01:26:24;97989.94;;;3.58;100.00
41886;BME280;27567;43.084;25.616;2023-04-07T01:32:03;97987.94;;;3.52;100.00
41886;BME280;27567;43.084;25.616;2023-04-07T01:34:50;97991.75;;;3.41;100.00
41886;BME280;27567;43.084;25.616;2023-04-07T01:37:36;97988.75;;;3.27;100.00
41886;BME280;27567;43.084;25.616;2023-04-07T01:40:20;97982.28;;;3.38;100.00
41886;BME280;27567;43.084;25.616;2023-04-07T01:43:05;97986.63;;;3.31;100.00
41886;BME280;27567;43.084;25.616;2023-04-07T01:45:51;97978.97;;;3.20;100.00
41886;BME280;27567;43.084;25.616;2023-04-07T01:48:36;97979.13;;;3.26;100.00
41886;BME280;27567;43.084;25.616;2023-04-07T01:51:21;97980.63;;;3.37;100.00
41886;BME280;27567;43.084;25.616;2023-04-07T01:54:07;97976.81;;;3.31;100.00
41886;BME280;27567;43.084;25.616;2023-04-07T01:56:51;97976.84;;;3.23;100.00
41886;BME280;27567;43.084;25.616;2023-04-07T01:59:35;97979.66;;;3.30;100.00
41886;BME280;27567;43.084;25.616;2023-04-07T02:02:19;97974.84;;;3.34;100.00
41886;BME280;27567;43.084;25.616;2023-04-07T02:05:08;97971.19;;;3.26;100.00
41886;BME280;27567;43.084;25.616;2023-04-07T02:08:02;97972.19;;;3.34;100.00
41886;BME280;27567;43.084;25.616;2023-04-07T02:10:47;97968.22;;;3.29;100.00
41886;BME280;27567;43.084;25.616;2023-04-07T02:13:33;97967.88;;;3.16;100.00
41886;BME280;27567;43.084;25.616;2023-04-07T02:16:19;97977.81;;;3.14;100.00
41886;BME280;27567;43.084;25.616;2023-04-07T02:19:04;97973.69;;;3.28;100.00
41886;BME280;27567;43.084;25.616;2023-04-07T02:21:48;97968.69;;;3.16;100.00
41886;BME280;27567;43.084;25.616;2023-04-07T02:24:33;97965.88;;;3.10;100.00
41886;BME280;27567;43.084;25.616;2023-04-07T02:27:17;97967.06;;;3.24;100.00
41886;BME280;27567;43.084;25.616;2023-04-07T02:30:03;97971.03;;;3.11;100.00
41886;BME280;27567;43.084;25.616;2023-04-07T02:32:47;97960.56;;;3.10;100.00
41886;BME280;27567;43.084;25.616;2023-04-07T02:35:31;97966.03;;;3.00;100.00
41886;BME280;27567;43.084;25.616;2023-04-07T02:38:15;97972.81;;;3.03;100.00
41886;BME280;27567;43.084;25.616;2023-04-07T02:40:59;97970.63;;;2.90;100.00
41886;BME280;27567;43.084;25.616;2023-04-07T02:43:43;97967.50;;;2.94;100.00
41886;BME280;27567;43.084;25.616;2023-04-07T02:46:27;97972.16;;;3.00;100.00
41886;BME280;27567;43.084;25.616;2023-04-07T02:49:10;97975.59;;;2.93;100.00
41886;BME280;27567;43.084;25.616;2023-04-07T02:51:54;97972.28;;;2.91;100.00
41886;BME280;27567;43.084;25.616;2023-04-07T02:54:38;97965.81;;;2.85;100.00
41886;BME280;27567;43.084;25.616;2023-04-07T02:57:23;97972.94;;;2.93;100.00
41886;BME280;27567;43.084;25.616;2023-04-07T03:00:08;97979.06;;;2.85;100.00
41886;BME280;27567;43.084;25.616;2023-04-07T03:02:52;97974.88;;;2.74;100.00
41886;BME280;27567;43.084;25.616;2023-04-07T03:05:36;97983.19;;;2.79;100.00
41886;BME280;27567;43.084;25.616;2023-04-07T03:08:20;97974.25;;;2.80;100.00
41886;BME280;27567;43.084;25.616;2023-04-07T03:11:04;97979.06;;;2.77;100.00
41886;BME280;27567;43.084;25.616;2023-04-07T03:13:48;97980.03;;;2.76;100.00
41886;BME280;27567;43.084;25.616;2023-04-07T03:16:32;97979.59;;;2.89;100.00
41886;BME280;27567;43.084;25.616;2023-04-07T03:19:16;97980.03;;;2.84;100.00
41886;BME280;27567;43.084;25.616;2023-04-07T03:22:00;97983.69;;;2.83;100.00
41886;BME280;27567;43.084;25.616;2023-04-07T03:24:45;97984.66;;;2.74;100.00
41886;BME280;27567;43.084;25.616;2023-04-07T03:27:29;97983.34;;;2.86;100.00
41886;BME280;27567;43.084;25.616;2023-04-07T03:30:13;97981.06;;;2.48;100.00
41886;BME280;27567;43.084;25.616;2023-04-07T03:32:56;97981.00;;;2.32;100.00
41886;BME280;27567;43.084;25.616;2023-04-07T03:35:41;97987.84;;;2.43;100.00
41886;BME280;27567;43.084;25.616;2023-04-07T03:38:25;97992.25;;;2.34;100.00
41886;BME280;27567;43.084;25.616;2023-04-07T03:41:09;97996.88;;;2.32;100.00
41886;BME280;27567;43.084;25.616;2023-04-07T03:43:53;97993.06;;;2.34;100.00
41886;BME280;27567;43.084;25.616;2023-04-07T03:46:37;97997.19;;;2.29;100.00
41886;BME280;27567;43.084;25.616;2023-04-07T03:49:21;98003.63;;;2.26;100.00
41886;BME280;27567;43.084;25.616;2023-04-07T03:52:05;97997.38;;;2.35;100.00
41886;BME280;27567;43.084;25.616;2023-04-07T03:54:49;98005.28;;;2.27;100.00
41886;BME280;27567;43.084;25.616;2023-04-07T03:57:33;98009.59;;;2.28;100.00
41886;BME280;27567;43.084;25.616;2023-04-07T04:00:18;98005.13;;;2.29;100.00
41886;BME280;27567;43.084;25.616;2023-04-07T04:03:02;98013.06;;;2.29;100.00
41886;BME280;27567;43.084;25.616;2023-04-07T04:05:47;98011.56;;;2.26;100.00
41886;BME280;27567;43.084;25.616;2023-04-07T04:08:31;98018.72;;;2.34;100.00
41886;BME280;27567;43.084;25.616;2023-04-07T04:11:15;98016.50;;;2.29;100.00
41886;BME280;27567;43.084;25.616;2023-04-07T04:13:59;98020.22;;;2.36;100.00
41886;BME280;27567;43.084;25.616;2023-04-07T04:16:42;98017.25;;;2.39;100.00
41886;BME280;27567;43.084;25.616;2023-04-07T04:19:26;98025.38;;;2.46;100.00
41886;BME280;27567;43.084;25.616;2023-04-07T04:22:10;98028.38;;;2.51;100.00
41886;BME280;27567;43.084;25.616;2023-04-07T04:24:54;98025.25;;;2.56;100.00
41886;BME280;27567;43.084;25.616;2023-04-07T04:27:38;98027.78;;;2.66;100.00
41886;BME280;27567;43.084;25.616;2023-04-07T04:30:23;98028.41;;;2.94;100.00
41886;BME280;27567;43.084;25.616;2023-04-07T04:33:06;98023.16;;;3.11;100.00
41886;BME280;27567;43.084;25.616;2023-04-07T04:35:51;98040.59;;;3.38;100.00
41886;BME280;27567;43.084;25.616;2023-04-07T04:38:35;98035.81;;;3.50;100.00
41886;BME280;27567;43.084;25.616;2023-04-07T04:41:19;98035.00;;;3.74;100.00
41886;BME280;27567;43.084;25.616;2023-04-07T04:44:03;98041.81;;;4.10;100.00
41886;BME280;27567;43.084;25.616;2023-04-07T04:46:47;98045.28;;;4.11;100.00
41886;BME280;27567;43.084;25.616;2023-04-07T04:49:32;98043.63;;;4.26;100.00
41886;BME280;27567;43.084;25.616;2023-04-07T04:52:16;98042.94;;;4.16;100.00
41886;BME280;27567;43.084;25.616;2023-04-07T04:54:59;98042.72;;;4.50;100.00
41886;BME280;27567;43.084;25.616;2023-04-07T04:57:44;98043.78;;;4.16;100.00
41886;BME280;27567;43.084;25.616;2023-04-07T05:00:28;98052.22;;;4.12;100.00
41886;BME280;27567;43.084;25.616;2023-04-07T05:03:11;98046.94;;;4.12;100.00
41886;BME280;27567;43.084;25.616;2023-04-07T05:05:56;98053.91;;;4.21;100.00
41886;BME280;27567;43.084;25.616;2023-04-07T05:08:40;98047.88;;;4.44;100.00
41886;BME280;27567;43.084;25.616;2023-04-07T05:11:23;98054.84;;;4.53;100.00
41886;BME280;27567;43.084;25.616;2023-04-07T05:14:08;98052.66;;;4.65;100.00
41886;BME280;27567;43.084;25.616;2023-04-07T05:16:52;98058.97;;;4.64;100.00
41886;BME280;27567;43.084;25.616;2023-04-07T05:19:37;98052.19;;;4.53;100.00
41886;BME280;27567;43.084;25.616;2023-04-07T05:22:21;98065.28;;;4.55;100.00
41886;BME280;27567;43.084;25.616;2023-04-07T05:25:05;98073.09;;;4.48;100.00
41886;BME280;27567;43.084;25.616;2023-04-07T05:27:50;98071.13;;;4.42;100.00
41886;BME280;27567;43.084;25.616;2023-04-07T05:30:33;98066.31;;;4.45;100.00
41886;BME280;27567;43.084;25.616;2023-04-07T05:33:18;98067.13;;;4.54;100.00
41886;BME280;27567;43.084;25.616;2023-04-07T05:36:02;98082.22;;;4.54;100.00
41886;BME280;27567;43.084;25.616;2023-04-07T05:38:46;98070.13;;;4.51;100.00
41886;BME280;27567;43.084;25.616;2023-04-07T05:41:30;98081.88;;;4.48;100.00
41886;BME280;27567;43.084;25.616;2023-04-07T05:44:14;98074.94;;;4.39;100.00
41886;BME280;27567;43.084;25.616;2023-04-07T05:46:58;98081.06;;;4.56;100.00
41886;BME280;27567;43.084;25.616;2023-04-07T05:49:43;98085.84;;;4.53;100.00
41886;BME280;27567;43.084;25.616;2023-04-07T05:52:30;98081.53;;;4.51;100.00
41886;BME280;27567;43.084;25.616;2023-04-07T05:55:14;98076.09;;;4.53;100.00
41886;BME280;27567;43.084;25.616;2023-04-07T05:57:58;98079.22;;;4.48;100.00
41886;BME280;27567;43.084;25.616;2023-04-07T06:00:45;98083.34;;;4.68;100.00
41886;BME280;27567;43.084;25.616;2023-04-07T06:03:29;98073.47;;;4.93;100.00
41886;BME280;27567;43.084;25.616;2023-04-07T06:06:14;98074.75;;;5.05;100.00
41886;BME280;27567;43.084;25.616;2023-04-07T06:08:58;98078.59;;;5.34;100.00
41886;BME280;27567;43.084;25.616;2023-04-07T06:11:42;98083.19;;;5.72;100.00
41886;BME280;27567;43.084;25.616;2023-04-07T06:14:26;98087.03;;;5.93;100.00
41886;BME280;27567;43.084;25.616;2023-04-07T06:17:10;98090.16;;;5.96;100.00
41886;BME280;27567;43.084;25.616;2023-04-07T06:19:54;98085.31;;;6.23;100.00
41886;BME280;27567;43.084;25.616;2023-04-07T06:22:38;98081.59;;;6.32;100.00
41886;BME280;27567;43.084;25.616;2023-04-07T06:25:22;98086.38;;;6.14;100.00
41886;BME280;27567;43.084;25.616;2023-04-07T06:28:06;98084.50;;;6.23;100.00
41886;BME280;27567;43.084;25.616;2023-04-07T06:30:50;98088.59;;;6.64;95.83
41886;BME280;27567;43.084;25.616;2023-04-07T06:33:33;98085.78;;;6.80;97.04
41886;BME280;27567;43.084;25.616;2023-04-07T06:36:17;98089.09;;;6.97;93.12
41886;BME280;27567;43.084;25.616;2023-04-07T06:39:04;98082.06;;;7.11;87.53
41886;BME280;27567;43.084;25.616;2023-04-07T06:41:48;98077.44;;;7.35;72.92
41886;BME280;27567;43.084;25.616;2023-04-07T06:44:32;98088.41;;;7.62;68.83
41886;BME280;27567;43.084;25.616;2023-04-07T06:47:16;98088.03;;;7.65;64.57
41886;BME280;27567;43.084;25.616;2023-04-07T06:49:59;98093.50;;;7.57;64.36
41886;BME280;27567;43.084;25.616;2023-04-07T06:52:43;98088.03;;;7.65;62.18
41886;BME280;27567;43.084;25.616;2023-04-07T06:55:27;98096.97;;;7.94;60.68
41886;BME280;27567;43.084;25.616;2023-04-07T06:58:11;98092.63;;;7.93;61.87
41886;BME280;27567;43.084;25.616;2023-04-07T07:00:55;98101.19;;;8.32;59.09
41886;BME280;27567;43.084;25.616;2023-04-07T07:03:39;98103.97;;;8.45;57.69
41886;BME280;27567;43.084;25.616;2023-04-07T07:06:23;98105.91;;;7.86;61.79
41886;BME280;27567;43.084;25.616;2023-04-07T07:09:07;98096.63;;;8.04;60.92
41886;BME280;27567;43.084;25.616;2023-04-07T07:11:51;98102.56;;;7.99;58.49
41886;BME280;27567;43.084;25.616;2023-04-07T07:14:35;98100.00;;;7.69;66.07
41886;BME280;27567;43.084;25.616;2023-04-07T07:17:18;98102.22;;;8.31;60.25
41886;BME280;27567;43.084;25.616;2023-04-07T07:20:03;98111.53;;;8.63;58.57
41886;BME280;27567;43.084;25.616;2023-04-07T07:22:47;98106.81;;;8.65;55.08
41886;BME280;27567;43.084;25.616;2023-04-07T07:25:31;98116.47;;;8.38;53.88
41886;BME280;27567;43.084;25.616;2023-04-07T07:28:15;98102.09;;;7.95;55.75
41886;BME280;27567;43.084;25.616;2023-04-07T07:30:59;98112.94;;;8.37;55.64
41886;BME280;27567;43.084;25.616;2023-04-07T07:33:43;98110.31;;;8.94;55.95
41886;BME280;27567;43.084;25.616;2023-04-07T07:36:28;98101.31;;;9.09;53.53
41886;BME280;27567;43.084;25.616;2023-04-07T07:39:20;98108.66;;;7.93;55.05
41886;BME280;27567;43.084;25.616;2023-04-07T07:42:04;98106.81;;;8.15;57.01
41886;BME280;27567;43.084;25.616;2023-04-07T07:44:48;98113.09;;;8.07;55.83
41886;BME280;27567;43.084;25.616;2023-04-07T07:47:33;98108.31;;;8.24;54.29
41886;BME280;27567;43.084;25.616;2023-04-07T07:50:20;98112.00;;;7.80;54.15
41886;BME280;27567;43.084;25.616;2023-04-07T07:53:04;98119.97;;;7.95;54.61
41886;BME280;27567;43.084;25.616;2023-04-07T07:55:48;98123.53;;;8.24;53.58
41886;BME280;27567;43.084;25.616;2023-04-07T07:58:32;98118.75;;;8.63;53.29
41886;BME280;27567;43.084;25.616;2023-04-07T08:01:16;98119.13;;;8.95;51.71
41886;BME280;27567;43.084;25.616;2023-04-07T08:04:00;98111.03;;;9.16;50.92
41886;BME280;27567;43.084;25.616;2023-04-07T08:06:44;98109.66;;;9.89;50.85
41886;BME280;27567;43.084;25.616;2023-04-07T08:09:28;98115.72;;;10.65;47.53
41886;BME280;27567;43.084;25.616;2023-04-07T08:12:12;98110.50;;;9.97;47.00
41886;BME280;27567;43.084;25.616;2023-04-07T08:14:56;98115.94;;;10.64;46.99
41886;BME280;27567;43.084;25.616;2023-04-07T08:17:40;98100.78;;;9.75;46.83
41886;BME280;27567;43.084;25.616;2023-04-07T08:20:25;98113.41;;;10.15;46.86
41886;BME280;27567;43.084;25.616;2023-04-07T08:23:09;98101.38;;;9.71;47.50
41886;BME280;27567;43.084;25.616;2023-04-07T08:25:53;98104.94;;;9.91;48.61
41886;BME280;27567;43.084;25.616;2023-04-07T08:28:37;98107.47;;;10.47;47.17
41886;BME280;27567;43.084;25.616;2023-04-07T08:31:22;98095.47;;;10.02;45.74
41886;BME280;27567;43.084;25.616;2023-04-07T08:34:06;98099.34;;;9.80;46.54
41886;BME280;27567;43.084;25.616;2023-04-07T08:36:50;98096.09;;;9.98;47.64
41886;BME280;27567;43.084;25.616;2023-04-07T08:39:34;98108.34;;;8.75;52.51
41886;BME280;27567;43.084;25.616;2023-04-07T08:42:18;98102.66;;;8.84;55.02
41886;BME280;27567;43.084;25.616;2023-04-07T08:45:04;98100.19;;;9.31;55.28
41886;BME280;27567;43.084;25.616;2023-04-07T08:47:51;98093.06;;;9.45;55.37
41886;BME280;27567;43.084;25.616;2023-04-07T08:50:37;98092.31;;;9.72;60.46
41886;BME280;27567;43.084;25.616;2023-04-07T08:53:27;98086.13;;;9.78;65.75
41886;BME280;27567;43.084;25.616;2023-04-07T08:56:16;98090.34;;;10.14;64.82
41886;BME280;27567;43.084;25.616;2023-04-07T08:59:01;98095.03;;;9.85;65.28
41886;BME280;27567;43.084;25.616;2023-04-07T09:01:46;98107.13;;;9.12;69.21
41886;BME280;27567;43.084;25.616;2023-04-07T09:04:30;98102.75;;;9.05;77.63
41886;BME280;27567;43.084;25.616;2023-04-07T09:07:14;98103.50;;;8.35;81.77
41886;BME280;27567;43.084;25.616;2023-04-07T09:09:58;98114.34;;;8.33;81.68
41886;BME280;27567;43.084;25.616;2023-04-07T09:12:42;98113.09;;;8.51;83.68
41886;BME280;27567;43.084;25.616;2023-04-07T09:15:29;98114.47;;;8.47;86.69
41886;BME280;27567;43.084;25.616;2023-04-07T09:18:14;98110.75;;;7.97;92.15
41886;BME280;27567;43.084;25.616;2023-04-07T09:21:03;98113.81;;;8.16;91.03
41886;BME280;27567;43.084;25.616;2023-04-07T09:23:48;98115.91;;;7.99;85.13
41886;BME280;27567;43.084;25.616;2023-04-07T09:26:32;98106.31;;;8.55;85.41
41886;BME280;27567;43.084;25.616;2023-04-07T09:29:20;98120.47;;;8.77;78.99
41886;BME280;27567;43.084;25.616;2023-04-07T09:32:04;98106.53;;;8.53;80.05
41886;BME280;27567;43.084;25.616;2023-04-07T09:34:57;98110.91;;;9.31;76.59
41886;BME280;27567;43.084;25.616;2023-04-07T09:37:41;98106.09;;;9.69;72.77
41886;BME280;27567;43.084;25.616;2023-04-07T09:40:26;98115.06;;;10.16;69.58
41886;BME280;27567;43.084;25.616;2023-04-07T09:43:15;98104.25;;;9.76;72.09
41886;BME280;27567;43.084;25.616;2023-04-07T09:46:26;98110.38;;;9.50;66.65
41886;BME280;27567;43.084;25.616;2023-04-07T09:49:12;98111.38;;;10.85;61.96
41886;BME280;27567;43.084;25.616;2023-04-07T09:51:57;98107.06;;;10.43;67.23
41886;BME280;27567;43.084;25.616;2023-04-07T09:54:42;98109.09;;;10.14;70.10
41886;BME280;27567;43.084;25.616;2023-04-07T09:57:26;98097.63;;;11.20;62.28
41886;BME280;27567;43.084;25.616;2023-04-07T10:00:11;98087.75;;;11.20;62.00
41886;BME280;27567;43.084;25.616;2023-04-07T10:02:56;98104.56;;;11.86;56.65
41886;BME280;27567;43.084;25.616;2023-04-07T10:05:40;98119.50;;;11.76;52.53
41886;BME280;27567;43.084;25.616;2023-04-07T10:08:25;98110.19;;;11.39;52.94
41886;BME280;27567;43.084;25.616;2023-04-07T10:11:10;98104.81;;;11.39;56.53
41886;BME280;27567;43.084;25.616;2023-04-07T10:13:54;98107.16;;;12.64;53.92
41886;BME280;27567;43.084;25.616;2023-04-07T10:16:38;98106.25;;;13.51;51.38
41886;BME280;27567;43.084;25.616;2023-04-07T10:19:24;98101.06;;;13.99;50.06
41886;BME280;27567;43.084;25.616;2023-04-07T10:22:10;98102.19;;;13.79;49.77
41886;BME280;27567;43.084;25.616;2023-04-07T10:25:09;98101.31;;;14.64;47.50
41886;BME280;27567;43.084;25.616;2023-04-07T10:28:05;98104.13;;;13.72;48.65
41886;BME280;27567;43.084;25.616;2023-04-07T10:30:51;98102.50;;;13.34;48.30
41886;BME280;27567;43.084;25.616;2023-04-07T10:34:02;98100.91;;;12.70;50.36
41886;BME280;27567;43.084;25.616;2023-04-07T10:37:12;98112.00;;;11.91;51.09
41886;BME280;27567;43.084;25.616;2023-04-07T10:43:37;98097.88;;;15.28;44.92
41886;BME280;27567;43.084;25.616;2023-04-07T10:46:21;98097.47;;;14.71;44.96
41886;BME280;27567;43.084;25.616;2023-04-07T10:49:09;98098.69;;;14.45;46.11
41886;BME280;27567;43.084;25.616;2023-04-07T11:03:56;98104.69;;;16.46;39.52
41886;BME280;27567;43.084;25.616;2023-04-07T11:06:48;98104.78;;;14.40;42.86
41886;BME280;27567;43.084;25.616;2023-04-07T11:09:32;98106.25;;;13.33;44.04
41886;BME280;27567;43.084;25.616;2023-04-07T11:12:23;98123.38;;;12.76;45.43
41886;BME280;27567;43.084;25.616;2023-04-07T11:15:17;98116.09;;;13.20;45.47
41886;BME280;27567;43.084;25.616;2023-04-07T11:18:19;98105.34;;;16.36;41.79
41886;BME280;27567;43.084;25.616;2023-04-07T11:21:04;98107.53;;;16.40;41.33
41886;BME280;27567;43.084;25.616;2023-04-07T11:23:51;98122.41;;;13.33;45.29
41886;BME280;27567;43.084;25.616;2023-04-07T11:26:36;98113.84;;;12.80;46.76
41886;BME280;27567;43.084;25.616;2023-04-07T11:29:32;98112.06;;;12.92;47.93
41886;BME280;27567;43.084;25.616;2023-04-07T11:32:21;98100.06;;;16.13;42.53
41886;BME280;27567;43.084;25.616;2023-04-07T11:35:06;98105.34;;;14.31;43.79
41886;BME280;27567;43.084;25.616;2023-04-07T11:37:56;98116.25;;;14.24;45.37
41886;BME280;27567;43.084;25.616;2023-04-07T11:40:41;98116.84;;;13.65;45.95
41886;BME280;27567;43.084;25.616;2023-04-07T11:43:26;98120.03;;;12.30;50.40
41886;BME280;27567;43.084;25.616;2023-04-07T11:46:16;98119.66;;;12.26;50.58
41886;BME280;27567;43.084;25.616;2023-04-07T11:49:11;98109.84;;;11.68;53.88
41886;BME280;27567;43.084;25.616;2023-04-07T11:52:05;98133.16;;;11.15;54.45
41886;BME280;27567;43.084;25.616;2023-04-07T11:54:50;98135.03;;;11.15;58.78
41886;BME280;27567;43.084;25.616;2023-04-07T11:57:34;98132.34;;;11.08;58.35
41886;BME280;27567;43.084;25.616;2023-04-07T12:00:18;98138.81;;;10.53;61.43
41886;BME280;27567;43.084;25.616;2023-04-07T12:03:10;98130.16;;;10.64;61.47
41886;BME280;27567;43.084;25.616;2023-04-07T12:05:57;98121.44;;;10.89;60.29
41886;BME280;27567;43.084;25.616;2023-04-07T12:08:42;98137.34;;;10.91;58.97
41886;BME280;27567;43.084;25.616;2023-04-07T12:11:27;98139.00;;;10.78;58.23
41886;BME280;27567;43.084;25.616;2023-04-07T12:14:11;98128.03;;;11.07;58.45
41886;BME280;27567;43.084;25.616;2023-04-07T12:16:55;98141.53;;;11.46;55.68
41886;BME280;27567;43.084;25.616;2023-04-07T12:19:40;98140.56;;;11.79;57.25
41886;BME280;27567;43.084;25.616;2023-04-07T12:22:25;98139.84;;;11.58;56.40
41886;BME280;27567;43.084;25.616;2023-04-07T12:25:09;98151.19;;;10.54;61.13
41886;BME280;27567;43.084;25.616;2023-04-07T12:27:53;98151.53;;;10.31;68.58
41886;BME280;27567;43.084;25.616;2023-04-07T12:30:37;98147.47;;;10.48;67.78
41886;BME280;27567;43.084;25.616;2023-04-07T12:33:23;98145.56;;;10.35;67.57
41886;BME280;27567;43.084;25.616;2023-04-07T12:36:07;98147.22;;;10.30;71.11
41886;BME280;27567;43.084;25.616;2023-04-07T12:38:50;98146.84;;;10.66;68.48
41886;BME280;27567;43.084;25.616;2023-04-07T12:41:35;98137.88;;;11.33;60.86
41886;BME280;27567;43.084;25.616;2023-04-07T12:44:21;98142.78;;;11.88;58.53
41886;BME280;27567;43.084;25.616;2023-04-07T12:47:05;98144.28;;;11.25;58.03
41886;BME280;27567;43.084;25.616;2023-04-07T12:49:49;98153.13;;;11.39;61.30
41886;BME280;27567;43.084;25.616;2023-04-07T12:52:33;98154.88;;;11.66;59.23
41886;BME280;27567;43.084;25.616;2023-04-07T12:55:18;98164.66;;;11.47;62.22
41886;BME280;27567;43.084;25.616;2023-04-07T12:58:02;98157.38;;;10.95;63.38
41886;BME280;27567;43.084;25.616;2023-04-07T13:00:47;98158.63;;;10.52;68.01
41886;BME280;27567;43.084;25.616;2023-04-07T13:03:31;98171.41;;;10.77;70.44
41886;BME280;27567;43.084;25.616;2023-04-07T13:06:15;98171.41;;;9.81;72.19
41886;BME280;27567;43.084;25.616;2023-04-07T13:09:00;98176.44;;;10.04;74.50
41886;BME280;27567;43.084;25.616;2023-04-07T13:11:45;98173.94;;;10.03;77.56
41886;BME280;27567;43.084;25.616;2023-04-07T13:14:29;98175.84;;;9.54;75.75
41886;BME280;27567;43.084;25.616;2023-04-07T13:17:13;98192.25;;;9.09;82.04
41886;BME280;27567;43.084;25.616;2023-04-07T13:19:58;98182.81;;;9.13;84.96
41886;BME280;27567;43.084;25.616;2023-04-07T13:22:42;98190.41;;;8.81;84.18
41886;BME280;27567;43.084;25.616;2023-04-07T13:25:26;98184.28;;;8.59;93.65
41886;BME280;27567;43.084;25.616;2023-04-07T13:28:09;98191.53;;;8.65;91.27
41886;BME280;27567;43.084;25.616;2023-04-07T13:30:53;98192.25;;;8.52;93.31
41886;BME280;27567;43.084;25.616;2023-04-07T13:33:38;98191.03;;;8.54;93.16
41886;BME280;27567;43.084;25.616;2023-04-07T13:36:24;98194.16;;;8.43;95.07
41886;BME280;27567;43.084;25.616;2023-04-07T13:39:09;98202.59;;;8.40;98.37
41886;BME280;27567;43.084;25.616;2023-04-07T13:41:53;98203.59;;;8.39;99.89
41886;BME280;27567;43.084;25.616;2023-04-07T13:44:37;98200.28;;;8.37;98.49
41886;BME280;27567;43.084;25.616;2023-04-07T13:47:23;98211.38;;;8.55;97.94
41886;BME280;27567;43.084;25.616;2023-04-07T13:50:07;98201.28;;;8.51;97.07
41886;BME280;27567;43.084;25.616;2023-04-07T13:52:52;98206.94;;;8.63;97.77
41886;BME280;27567;43.084;25.616;2023-04-07T13:55:36;98219.03;;;8.43;98.70
41886;BME280;27567;43.084;25.616;2023-04-07T13:58:20;98218.63;;;8.40;100.00
41886;BME280;27567;43.084;25.616;2023-04-07T14:01:05;98214.31;;;8.02;100.00
41886;BME280;27567;43.084;25.616;2023-04-07T14:03:48;98220.41;;;7.96;100.00
41886;BME280;27567;43.084;25.616;2023-04-07T14:06:33;98232.53;;;7.98;100.00
41886;BME280;27567;43.084;25.616;2023-04-07T14:09:19;98230.91;;;7.82;100.00
41886;BME280;27567;43.084;25.616;2023-04-07T14:12:04;98228.25;;;8.19;100.00
41886;BME280;27567;43.084;25.616;2023-04-07T14:14:49;98230.09;;;8.19;100.00
41886;BME280;27567;43.084;25.616;2023-04-07T14:17:35;98226.94;;;8.30;100.00
41886;BME280;27567;43.084;25.616;2023-04-07T14:20:20;98224.19;;;8.45;100.00
41886;BME280;27567;43.084;25.616;2023-04-07T14:23:04;98238.16;;;8.62;100.00
41886;BME280;27567;43.084;25.616;2023-04-07T14:25:48;98238.31;;;8.54;100.00
41886;BME280;27567;43.084;25.616;2023-04-07T14:28:32;98244.09;;;8.42;100.00
41886;BME280;27567;43.084;25.616;2023-04-07T14:31:16;98242.19;;;8.36;100.00
41886;BME280;27567;43.084;25.616;2023-04-07T14:34:00;98247.72;;;8.35;100.00
41886;BME280;27567;43.084;25.616;2023-04-07T14:36:55;98244.72;;;8.81;99.15
41886;BME280;27567;43.084;25.616;2023-04-07T14:39:40;98249.94;;;9.18;91.47
41886;BME280;27567;43.084;25.616;2023-04-07T14:42:25;98257.38;;;9.23;92.54
41886;BME280;27567;43.084;25.616;2023-04-07T14:45:09;98257.06;;;9.11;91.76
41886;BME280;27567;43.084;25.616;2023-04-07T14:47:55;98263.59;;;9.01;95.83
41886;BME280;27567;43.084;25.616;2023-04-07T14:50:39;98257.25;;;9.38;91.94